createdAt,value
2023-05-10T00:00:00.535Z,62.0
2023-05-10T00:10:00.538Z,63.1
2023-05-10T00:20:00.560Z,63.4
2023-05-10T00:30:00.536Z,65.2
2023-05-10T00:40:00.539Z,66.7
2023-05-10T00:50:00.538Z,68.2
2023-05-10T01:00:00.517Z,70.1
2023-05-10T01:10:00.523Z,70.9
2023-05-10T01:20:00.560Z,71.8
2023-05-10T01:30:14.009Z,72.4
2023-05-10T01:40:00.521Z,73.3
2023-05-10T01:50:00.503Z,74.4
2023-05-10T02:00:00.519Z,76.1
2023-05-10T02:10:00.527Z,75.0
2023-05-10T02:20:00.502Z,74.8
2023-05-10T02:30:00.528Z,75.0
2023-05-10T02:40:00.520Z,75.7
2023-05-10T02:50:00.517Z,75.0
2023-05-10T03:00:00.553Z,75.0
2023-05-10T03:10:00.530Z,74.8
2023-05-10T03:20:00.505Z,74.5
2023-05-10T03:30:00.529Z,74.0
2023-05-10T03:40:00.504Z,73.1
2023-05-10T03:50:00.581Z,73.7
2023-05-10T04:00:00.548Z,72.7
2023-05-10T04:10:00.631Z,72.2
2023-05-10T04:20:00.627Z,70.3
2023-05-10T04:30:00.510Z,71.9
2023-05-10T04:40:00.506Z,70.5
2023-05-10T04:50:00.541Z,69.8
2023-05-10T05:00:00.507Z,69.6
2023-05-10T05:10:00.542Z,67.7
2023-05-10T05:20:00.496Z,63.8
2023-05-10T05:30:00.503Z,60.8
2023-05-10T05:40:00.492Z,58.3
2023-05-10T05:50:00.511Z,54.9
2023-05-10T06:00:00.566Z,51.0
2023-05-10T06:10:00.512Z,51.9
2023-05-10T06:20:00.548Z,51.0
2023-05-10T06:30:11.821Z,50.2
2023-05-10T06:40:00.529Z,49.6
2023-05-10T06:50:00.533Z,47.9
2023-05-10T07:00:00.537Z,49.1
2023-05-10T07:10:00.537Z,45.5
2023-05-10T07:20:00.538Z,45.9
2023-05-10T07:30:00.594Z,47.9
2023-05-10T07:40:00.530Z,47.0
2023-05-10T07:50:00.525Z,49.8
2023-05-10T08:00:00.581Z,51.6
2023-05-10T08:10:00.546Z,49.2
2023-05-10T08:20:00.614Z,49.6
2023-05-10T08:30:00.541Z,47.5
2023-05-10T08:40:00.553Z,51.0
2023-05-10T08:50:00.541Z,48.0
2023-05-10T09:00:00.511Z,47.1
2023-05-10T09:10:00.534Z,41.0
2023-05-10T09:20:00.510Z,45.2
2023-05-10T09:30:00.547Z,46.6
2023-05-10T09:40:00.515Z,46.1
2023-05-10T09:50:00.523Z,47.2
2023-05-10T10:00:00.510Z,43.7
2023-05-10T10:10:00.507Z,42.6
2023-05-10T10:20:00.573Z,41.2
2023-05-10T10:30:00.527Z,39.0
2023-05-10T10:40:00.546Z,36.9
2023-05-10T10:50:00.515Z,36.9
2023-05-10T11:00:00.494Z,33.1
2023-05-10T11:10:00.502Z,31.0
2023-05-10T11:20:00.499Z,32.0
2023-05-10T11:30:00.507Z,33.1
2023-05-10T11:40:00.541Z,34.3
2023-05-10T11:50:00.508Z,38.0
2023-05-10T12:00:00.541Z,39.6
2023-05-10T12:10:00.511Z,39.7
2023-05-10T12:20:00.515Z,39.1
2023-05-10T12:30:00.553Z,38.0
2023-05-10T12:40:00.562Z,39.6
2023-05-10T12:50:00.557Z,40.9
2023-05-10T13:00:00.701Z,41.2
2023-05-10T13:10:00.499Z,39.0
2023-05-10T13:20:00.540Z,40.2
2023-05-10T13:30:00.564Z,39.8
2023-05-10T13:40:00.521Z,40.5
2023-05-10T13:50:00.545Z,37.9
2023-05-10T14:00:05.254Z,37.4
2023-05-10T14:10:00.506Z,37.8
2023-05-10T14:20:00.520Z,37.6
2023-05-10T14:30:00.558Z,35.0
2023-05-10T14:40:00.564Z,33.5
2023-05-10T14:50:00.548Z,35.2
2023-05-10T15:00:00.602Z,36.5
2023-05-10T15:10:00.499Z,38.9
2023-05-10T15:20:00.516Z,39.3
2023-05-10T15:30:00.529Z,38.0
2023-05-10T15:40:00.536Z,37.8
2023-05-10T15:50:00.510Z,34.3
2023-05-10T16:00:00.580Z,36.1
2023-05-10T16:10:00.556Z,35.7
2023-05-10T16:20:00.553Z,37.7
2023-05-10T16:30:00.564Z,38.3
2023-05-10T16:40:00.680Z,40.0
2023-05-10T16:50:00.605Z,42.3
2023-05-10T17:00:00.871Z,44.1
2023-05-10T17:10:00.612Z,46.1
2023-05-10T17:20:00.550Z,47.4
2023-05-10T17:30:00.579Z,49.7
2023-05-10T17:50:00.685Z,51.6
2023-05-10T18:20:00.682Z,55.4
2023-05-10T18:40:00.465Z,56.4
2023-05-10T18:50:00.735Z,57.1
2023-05-10T19:00:00.559Z,57.4
2023-05-10T19:10:00.436Z,58.2
2023-05-10T19:20:00.459Z,57.6
2023-05-10T19:30:00.445Z,58.1
2023-05-10T19:40:00.494Z,58.2
2023-05-10T19:50:00.483Z,58.1
2023-05-10T20:00:00.444Z,57.9
2023-05-10T20:10:00.458Z,58.3
2023-05-10T20:20:00.489Z,57.6
2023-05-10T20:30:00.442Z,57.0
2023-05-10T20:40:00.492Z,56.4
2023-05-10T20:50:00.428Z,56.1
2023-05-10T21:00:00.465Z,55.3
2023-05-10T21:10:00.460Z,54.9
2023-05-10T21:20:00.442Z,54.4
2023-05-10T21:30:00.432Z,54.0
2023-05-10T21:40:00.462Z,53.6
2023-05-10T21:50:00.544Z,53.1
2023-05-10T22:00:00.538Z,52.7
2023-05-10T22:10:00.430Z,53.2
2023-05-10T22:20:00.432Z,52.3
2023-05-10T22:30:00.467Z,51.7
2023-05-10T22:40:00.476Z,51.3
2023-05-10T22:50:00.448Z,50.2
2023-05-10T23:00:00.457Z,50.0
2023-05-10T23:10:00.459Z,50.8
2023-05-10T23:20:00.456Z,50.2
2023-05-10T23:30:00.452Z,49.9
2023-05-10T23:40:00.456Z,50.8
2023-05-10T23:50:00.455Z,52.9
